Time;durP1;ratioP1;P1;durP2;ratioP2;P2;SDS_P1;SDS_P2;PMS_P1;PMS_P2;Temp;Humidity;BMP_temperature;BMP_pressure;BME280_temperature;BME280_humidity;BME280_pressure;Samples;Min_cycle;Max_cycle;Signal;HPM_P1;HPM_P2
2022/03/06 00:01:43;;;;;;;13.13;8.07;;;2.00;99.90;;;;;;5013826;28;20234;-85
2022/03/06 00:04:12;;;;;;;16.43;9.23;;;2.00;99.90;;;;;;5013999;28;20207;-85
2022/03/06 00:06:41;;;;;;;12.73;7.60;;;1.90;99.90;;;;;;5014315;28;20207;-85
2022/03/06 00:09:09;;;;;;;9.20;8.07;;;1.90;99.90;;;;;;5014855;28;20203;-85
2022/03/06 00:11:41;;;;;;;11.57;9.17;;;1.90;99.90;;;;;;5014523;28;20231;-85
2022/03/06 00:14:09;;;;;;;14.40;8.97;;;1.90;99.90;;;;;;5015708;28;20265;-85
2022/03/06 00:16:41;;;;;;;16.13;8.57;;;1.90;99.90;;;;;;5013827;28;20292;-85
2022/03/06 00:19:11;;;;;;;8.83;7.77;;;1.90;99.90;;;;;;5013577;28;20219;-85
2022/03/06 00:21:40;;;;;;;13.17;9.30;;;1.90;99.90;;;;;;5013595;28;20258;-85
2022/03/06 00:24:08;;;;;;;8.70;7.90;;;1.90;99.90;;;;;;5013635;28;20211;-85
2022/03/06 00:26:37;;;;;;;10.87;8.90;;;1.90;99.90;;;;;;5013831;28;20203;-85
2022/03/06 00:29:06;;;;;;;15.60;10.03;;;1.80;99.90;;;;;;5014353;28;20199;-85
2022/03/06 00:31:34;;;;;;;9.57;8.37;;;1.80;99.90;;;;;;5013665;28;20226;-85
2022/03/06 00:34:04;;;;;;;10.80;9.33;;;1.80;99.90;;;;;;5015856;28;20238;-85
2022/03/06 00:36:37;;;;;;;11.03;9.20;;;1.80;99.90;;;;;;5013484;28;20207;-85
2022/03/06 00:39:05;;;;;;;10.57;8.43;;;1.70;99.90;;;;;;5013600;28;20199;-85
2022/03/06 00:41:34;;;;;;;10.73;8.90;;;1.70;99.90;;;;;;5012849;28;20289;-85
2022/03/06 00:44:02;;;;;;;11.37;8.83;;;1.70;99.90;;;;;;5013047;28;20306;-85
2022/03/06 00:46:31;;;;;;;14.07;9.60;;;1.70;99.90;;;;;;5013229;28;20207;-85
2022/03/06 00:49:00;;;;;;;16.47;10.00;;;1.60;99.90;;;;;;5013351;28;20203;-85
2022/03/06 00:51:28;;;;;;;12.00;8.73;;;1.60;99.90;;;;;;5013069;28;20227;-86
2022/03/06 00:53:58;;;;;;;13.27;9.33;;;1.60;99.90;;;;;;5013320;28;20253;-85
2022/03/06 00:56:27;;;;;;;12.37;8.27;;;1.60;99.90;;;;;;5013163;28;20199;-86
2022/03/06 00:58:55;;;;;;;9.83;8.43;;;1.60;99.90;;;;;;5013010;28;20207;-85
2022/03/06 01:01:24;;;;;;;9.23;8.33;;;1.60;99.90;;;;;;5012475;28;20227;-85
2022/03/06 01:03:53;;;;;;;10.57;8.57;;;1.50;99.90;;;;;;5013011;28;20211;-85
2022/03/06 01:06:21;;;;;;;11.80;8.37;;;1.50;99.90;;;;;;5013300;28;20277;-85
2022/03/06 01:08:50;;;;;;;9.73;8.73;;;1.50;99.90;;;;;;5012741;28;20219;-85
2022/03/06 01:11:20;;;;;;;12.80;9.57;;;1.50;99.90;;;;;;5012286;28;20219;-85
2022/03/06 01:13:49;;;;;;;10.00;8.57;;;1.50;99.90;;;;;;5013298;28;20265;-84
2022/03/06 01:16:17;;;;;;;12.10;8.83;;;1.50;99.90;;;;;;5013084;28;20219;-84
2022/03/06 01:18:47;;;;;;;10.60;8.33;;;1.50;99.90;;;;;;5013067;28;20211;-84
2022/03/06 01:21:16;;;;;;;13.03;9.43;;;1.50;99.90;;;;;;5012604;28;20223;-86
2022/03/06 01:23:44;;;;;;;10.27;8.10;;;1.40;99.90;;;;;;5012656;28;20257;-86
2022/03/06 01:26:13;;;;;;;17.07;9.17;;;1.40;99.90;;;;;;5012969;28;20207;-86
2022/03/06 01:28:43;;;;;;;13.30;9.17;;;1.40;99.90;;;;;;5012792;28;20215;-86
2022/03/06 01:31:12;;;;;;;11.60;9.50;;;1.40;99.90;;;;;;5013101;28;20254;-86
2022/03/06 01:33:40;;;;;;;9.60;8.33;;;1.50;99.90;;;;;;5013219;28;20265;-86
2022/03/06 01:36:09;;;;;;;13.93;9.17;;;1.50;99.90;;;;;;5012762;28;20204;-86
2022/03/06 01:38:37;;;;;;;10.87;8.50;;;1.40;99.90;;;;;;5012963;28;20207;-86
2022/03/06 01:41:06;;;;;;;10.17;9.17;;;1.40;99.90;;;;;;5012084;28;20223;-86
2022/03/06 01:43:35;;;;;;;8.83;7.97;;;1.40;99.90;;;;;;5013097;28;20297;-86
2022/03/06 01:46:05;;;;;;;9.57;8.53;;;1.50;99.90;;;;;;5013394;28;20203;-86
2022/03/06 01:48:33;;;;;;;11.20;8.80;;;1.50;99.90;;;;;;5013025;28;20290;-86
2022/03/06 01:51:02;;;;;;;11.63;8.70;;;1.40;99.90;;;;;;5012448;28;20235;-86
2022/03/06 01:53:30;;;;;;;9.33;8.33;;;1.40;99.90;;;;;;5012951;28;20202;-86
2022/03/06 01:55:59;;;;;;;12.23;9.43;;;1.40;99.90;;;;;;5012496;28;20216;-86
2022/03/06 01:58:28;;;;;;;9.27;8.37;;;1.40;99.90;;;;;;5013200;28;20285;-86
2022/03/06 02:01:01;;;;;;;9.67;8.43;;;1.40;99.90;;;;;;5012323;28;20235;-86
2022/03/06 02:03:31;;;;;;;8.90;8.00;;;1.40;99.90;;;;;;5012266;28;20223;-86
2022/03/06 02:06:00;;;;;;;13.53;8.77;;;1.40;99.90;;;;;;5012790;28;20207;-86
2022/03/06 02:08:29;;;;;;;8.43;7.50;;;1.50;99.90;;;;;;5012435;28;20307;-86
2022/03/06 02:11:00;;;;;;;9.50;8.10;;;1.50;99.90;;;;;;5012222;28;20230;-86
2022/03/06 02:13:29;;;;;;;8.90;8.00;;;1.50;99.90;;;;;;5014135;28;20207;-87
2022/03/06 02:15:58;;;;;;;10.70;8.60;;;1.50;99.90;;;;;;5016669;28;20222;-86
2022/03/06 02:18:27;;;;;;;9.87;8.73;;;1.50;99.90;;;;;;5016239;28;20291;-86
2022/03/06 02:20:57;;;;;;;10.30;7.87;;;1.50;99.90;;;;;;5015826;28;20223;-86
2022/03/06 02:23:27;;;;;;;10.77;8.47;;;1.40;99.90;;;;;;5016072;28;20218;-86
2022/03/06 02:25:55;;;;;;;7.57;6.77;;;1.40;99.90;;;;;;5016552;28;20199;-86
2022/03/06 02:28:24;;;;;;;9.03;7.77;;;1.40;99.90;;;;;;5015959;28;20203;-86
2022/03/06 02:30:52;;;;;;;12.03;8.23;;;1.40;99.90;;;;;;5016192;28;20281;-86
2022/03/06 02:33:20;;;;;;;10.70;6.70;;;1.40;99.90;;;;;;5016025;28;20234;-86
2022/03/06 02:35:49;;;;;;;13.50;8.07;;;1.40;99.90;;;;;;5016015;28;20203;-86
2022/03/06 02:38:18;;;;;;;18.17;7.77;;;1.40;99.90;;;;;;5016021;28;20203;-86
2022/03/06 02:40:48;;;;;;;10.37;8.67;;;1.40;99.90;;;;;;5015505;28;20227;-86
2022/03/06 02:43:16;;;;;;;10.30;8.00;;;1.40;99.90;;;;;;5015206;28;20250;-86
2022/03/06 02:45:45;;;;;;;7.93;7.10;;;1.40;99.90;;;;;;5015786;28;20206;-86
2022/03/06 02:48:13;;;;;;;8.90;7.40;;;1.40;99.90;;;;;;5015731;28;20211;-86
2022/03/06 02:50:44;;;;;;;12.63;7.57;;;1.40;99.90;;;;;;5015146;28;20223;-86
2022/03/06 02:53:13;;;;;;;12.00;7.87;;;1.40;99.90;;;;;;5015950;28;20211;-86
2022/03/06 02:55:42;;;;;;;10.30;7.60;;;1.40;99.90;;;;;;5015435;28;20254;-85
2022/03/06 02:58:12;;;;;;;11.57;7.77;;;1.30;99.90;;;;;;5015646;28;20207;-86
2022/03/06 03:00:41;;;;;;;13.20;7.00;;;1.30;99.90;;;;;;5015593;28;20235;-86
2022/03/06 03:03:10;;;;;;;9.03;7.40;;;1.30;99.90;;;;;;5015628;28;20230;-86
2022/03/06 03:05:38;;;;;;;7.70;6.90;;;1.30;99.90;;;;;;5015454;28;20203;-86
2022/03/06 03:08:07;;;;;;;16.23;7.27;;;1.30;99.90;;;;;;5015623;28;20211;-85
2022/03/06 03:10:36;;;;;;;7.90;6.90;;;1.30;99.90;;;;;;5014953;28;20234;-86
2022/03/06 03:13:04;;;;;;;13.63;7.77;;;1.30;99.90;;;;;;5014974;28;20195;-86
2022/03/06 03:15:34;;;;;;;10.17;8.00;;;1.30;99.90;;;;;;5015001;28;20238;-86
2022/03/06 03:18:03;;;;;;;7.97;6.47;;;1.30;99.90;;;;;;5014883;28;20203;-86
2022/03/06 03:20:31;;;;;;;8.50;7.47;;;1.20;99.90;;;;;;5015004;28;20272;-86
2022/03/06 03:23:00;;;;;;;12.87;7.67;;;1.30;99.90;;;;;;5014871;28;20227;-86
2022/03/06 03:25:29;;;;;;;7.07;6.37;;;1.30;99.90;;;;;;5013830;28;20262;-86
2022/03/06 03:27:57;;;;;;;11.07;7.70;;;1.30;99.90;;;;;;5015277;28;20218;-86
2022/03/06 03:30:26;;;;;;;8.87;7.33;;;1.30;99.90;;;;;;5015308;28;20234;-86
2022/03/06 03:32:56;;;;;;;11.13;6.77;;;1.30;99.90;;;;;;5014736;28;20229;-86
2022/03/06 03:35:24;;;;;;;7.53;6.73;;;1.20;99.90;;;;;;5014641;28;20257;-86
2022/03/06 03:37:53;;;;;;;8.10;6.97;;;1.20;99.90;;;;;;5014061;28;20257;-86
2022/03/06 03:40:21;;;;;;;7.93;6.97;;;1.30;99.90;;;;;;5014831;28;20285;-86
2022/03/06 03:42:49;;;;;;;7.93;6.83;;;1.20;99.90;;;;;;5014723;28;20293;-86
2022/03/06 03:45:18;;;;;;;8.77;6.83;;;1.20;99.90;;;;;;5014726;28;20203;-86
2022/03/06 03:47:46;;;;;;;10.53;7.33;;;1.20;99.90;;;;;;5014709;28;20218;-86
2022/03/06 03:50:16;;;;;;;11.73;6.00;;;1.20;99.90;;;;;;5014682;28;20257;-86
2022/03/06 03:52:44;;;;;;;10.30;7.87;;;1.10;99.90;;;;;;5014653;28;20210;-85
2022/03/06 03:55:13;;;;;;;10.17;7.10;;;1.10;99.90;;;;;;5014450;28;20207;-86
2022/03/06 03:57:41;;;;;;;8.10;7.27;;;1.20;99.90;;;;;;5014701;28;20215;-86
2022/03/06 04:00:11;;;;;;;9.90;7.30;;;1.20;99.90;;;;;;5014019;28;20254;-85
2022/03/06 04:02:40;;;;;;;8.30;6.73;;;1.10;99.90;;;;;;5013874;28;20254;-85
2022/03/06 04:05:09;;;;;;;7.60;6.77;;;1.10;99.90;;;;;;5014072;28;20237;-86
2022/03/06 04:07:39;;;;;;;8.30;6.60;;;1.10;99.90;;;;;;5014804;28;20253;-86
2022/03/06 04:10:08;;;;;;;9.63;5.63;;;1.10;99.90;;;;;;5015915;28;20234;-86
2022/03/06 04:12:36;;;;;;;8.77;6.73;;;1.10;99.90;;;;;;5014850;28;20257;-86
2022/03/06 04:15:05;;;;;;;9.30;6.97;;;1.10;99.90;;;;;;5016517;28;20226;-86
2022/03/06 04:17:33;;;;;;;10.57;8.17;;;1.10;99.90;;;;;;5014037;28;20214;-85
2022/03/06 04:20:02;;;;;;;8.10;6.50;;;1.20;99.90;;;;;;5013802;28;20231;-85
2022/03/06 04:22:31;;;;;;;8.17;6.93;;;1.20;99.90;;;;;;5014252;28;20203;-85
2022/03/06 04:25:01;;;;;;;13.07;8.33;;;1.10;99.90;;;;;;5014309;28;20309;-86
2022/03/06 04:27:29;;;;;;;8.60;6.67;;;1.10;99.90;;;;;;5015121;28;20207;-86
2022/03/06 04:29:58;;;;;;;8.40;7.10;;;1.10;99.90;;;;;;5015153;28;20234;-86
2022/03/06 04:32:26;;;;;;;11.47;7.87;;;1.10;99.90;;;;;;5015089;28;20207;-87
2022/03/06 04:34:54;;;;;;;7.93;6.70;;;1.10;99.90;;;;;;5015467;28;20270;-86
2022/03/06 04:37:23;;;;;;;8.90;7.53;;;1.10;99.90;;;;;;5013427;28;20211;-86
2022/03/06 04:39:51;;;;;;;8.77;7.50;;;1.10;99.90;;;;;;5013396;28;20231;-86
2022/03/06 04:42:21;;;;;;;11.40;7.70;;;1.10;99.90;;;;;;5012834;28;20219;-87
2022/03/06 04:44:50;;;;;;;8.50;6.63;;;1.10;99.90;;;;;;5013310;28;20285;-86
2022/03/06 04:47:18;;;;;;;8.23;6.90;;;1.10;99.90;;;;;;5013601;28;20261;-86
2022/03/06 04:49:47;;;;;;;7.43;6.80;;;1.10;99.90;;;;;;5013150;28;20228;-86
2022/03/06 04:52:15;;;;;;;10.90;8.00;;;1.00;99.90;;;;;;5013063;28;20203;-86
2022/03/06 04:54:44;;;;;;;9.93;7.53;;;1.00;99.90;;;;;;5013330;28;20254;-86
2022/03/06 04:57:12;;;;;;;7.73;6.93;;;1.10;99.90;;;;;;5013472;28;20265;-86
2022/03/06 04:59:42;;;;;;;8.53;7.63;;;1.00;99.90;;;;;;5012585;28;20227;-86
2022/03/06 05:02:10;;;;;;;7.77;6.97;;;1.00;99.90;;;;;;5013157;28;20261;-86
2022/03/06 05:04:39;;;;;;;8.17;7.37;;;1.10;99.90;;;;;;5012871;28;20237;-86
2022/03/06 05:07:08;;;;;;;10.23;7.10;;;1.00;99.90;;;;;;5013157;28;20206;-85
2022/03/06 05:09:36;;;;;;;24.17;6.53;;;1.00;99.90;;;;;;5012781;28;20235;-86
2022/03/06 05:12:06;;;;;;;11.47;7.43;;;1.00;99.90;;;;;;5012973;28;20207;-86
2022/03/06 05:14:34;;;;;;;11.43;7.17;;;1.00;99.90;;;;;;5012812;28;20203;-86
2022/03/06 05:17:04;;;;;;;6.63;5.93;;;1.00;99.90;;;;;;5012782;28;20232;-86
2022/03/06 05:19:33;;;;;;;8.90;7.63;;;1.00;99.90;;;;;;5012943;28;20203;-86
2022/03/06 05:22:01;;;;;;;7.57;6.50;;;0.90;99.90;;;;;;5013219;28;20203;-85
2022/03/06 05:24:29;;;;;;;9.77;7.37;;;0.90;99.90;;;;;;5012712;28;20223;-85
2022/03/06 05:26:58;;;;;;;9.37;7.30;;;0.90;99.90;;;;;;5012954;28;20268;-85
2022/03/06 05:29:26;;;;;;;21.50;7.60;;;0.90;99.90;;;;;;5012536;28;20234;-85
2022/03/06 05:31:55;;;;;;;12.63;6.83;;;0.90;99.90;;;;;;5013172;28;20238;-86
2022/03/06 05:34:25;;;;;;;11.10;8.43;;;0.90;99.90;;;;;;5012603;28;20272;-86
2022/03/06 05:36:54;;;;;;;9.20;7.30;;;1.00;99.90;;;;;;5012738;28;20203;-85
2022/03/06 05:39:22;;;;;;;7.83;6.13;;;1.00;99.90;;;;;;5012776;28;20223;-85
2022/03/06 05:41:51;;;;;;;9.53;6.23;;;0.90;99.90;;;;;;5012265;28;20278;-85
2022/03/06 05:44:20;;;;;;;8.20;6.50;;;1.00;99.90;;;;;;5012537;28;20215;-86
2022/03/06 05:46:49;;;;;;;8.33;6.93;;;1.00;99.90;;;;;;5012641;28;20219;-86
2022/03/06 05:49:18;;;;;;;8.03;7.27;;;1.00;99.90;;;;;;5015413;28;20269;-85
2022/03/06 05:51:47;;;;;;;5.97;5.43;;;1.00;99.90;;;;;;5016244;28;20229;-86
2022/03/06 05:54:16;;;;;;;13.10;7.10;;;1.00;99.90;;;;;;5016946;28;20261;-86
2022/03/06 05:56:45;;;;;;;7.50;6.50;;;1.00;99.90;;;;;;5016898;28;20203;-86
2022/03/06 05:59:13;;;;;;;9.90;7.67;;;1.10;99.90;;;;;;5016625;28;20211;-85
2022/03/06 06:01:41;;;;;;;6.77;6.17;;;1.00;99.90;;;;;;5016557;28;20207;-85
2022/03/06 06:04:12;;;;;;;11.97;7.30;;;1.10;99.90;;;;;;5016684;28;20219;-85
2022/03/06 06:06:41;;;;;;;8.50;7.20;;;1.10;99.90;;;;;;5016247;28;20284;-85
2022/03/06 06:09:11;;;;;;;9.40;7.23;;;1.20;99.90;;;;;;5016439;28;20211;-86
2022/03/06 06:11:39;;;;;;;8.67;6.60;;;1.20;99.90;;;;;;5016410;28;20231;-85
2022/03/06 06:14:08;;;;;;;7.37;6.60;;;1.30;99.90;;;;;;5015937;28;20203;-85
2022/03/06 06:16:36;;;;;;;7.43;6.53;;;1.30;99.90;;;;;;5016186;28;20266;-86
2022/03/06 06:19:05;;;;;;;10.07;7.20;;;1.20;99.90;;;;;;5015988;28;20211;-86
2022/03/06 06:21:34;;;;;;;11.40;7.57;;;1.20;99.90;;;;;;5015898;28;20252;-85
2022/03/06 06:24:02;;;;;;;7.20;6.40;;;1.30;99.90;;;;;;5016427;28;20207;-86
2022/03/06 06:26:32;;;;;;;9.43;7.13;;;1.20;99.90;;;;;;5015970;28;20206;-86
2022/03/06 06:29:01;;;;;;;9.03;7.40;;;1.30;99.90;;;;;;5016066;28;20277;-85
2022/03/06 06:31:29;;;;;;;8.80;7.57;;;1.30;99.90;;;;;;5015752;28;20234;-85
2022/03/06 06:33:58;;;;;;;8.40;7.60;;;1.30;99.90;;;;;;5015569;28;20227;-86
2022/03/06 06:36:27;;;;;;;7.50;6.77;;;1.40;99.90;;;;;;5015976;28;20203;-85
2022/03/06 06:38:55;;;;;;;9.63;7.83;;;1.40;99.90;;;;;;5016163;28;20230;-85
2022/03/06 06:41:24;;;;;;;7.57;6.20;;;1.40;99.90;;;;;;5015773;28;20227;-85
2022/03/06 06:43:54;;;;;;;8.43;7.60;;;1.50;99.90;;;;;;5015452;28;20230;-85
2022/03/06 06:46:22;;;;;;;17.63;7.87;;;1.60;99.90;;;;;;5015313;28;20230;-84
2022/03/06 06:48:51;;;;;;;9.47;7.13;;;1.60;99.90;;;;;;5015510;28;20277;-84
2022/03/06 06:51:19;;;;;;;8.47;6.40;;;1.70;99.90;;;;;;5015713;28;20223;-85
2022/03/06 06:53:47;;;;;;;10.43;8.63;;;1.70;99.90;;;;;;5015428;28;20211;-84
2022/03/06 06:56:16;;;;;;;11.93;7.47;;;1.70;99.90;;;;;;5015381;28;20210;-85
2022/03/06 06:58:44;;;;;;;8.57;7.50;;;1.70;99.90;;;;;;5014749;28;20207;-85
2022/03/06 07:01:16;;;;;;;9.65;8.13;;;1.80;99.90;;;;;;5014865;28;20297;-85
2022/03/06 07:03:45;;;;;;;11.20;8.53;;;1.80;99.90;;;;;;5015287;28;20237;-85
2022/03/06 07:06:13;;;;;;;10.77;8.60;;;1.80;99.90;;;;;;5014882;28;20218;-85
2022/03/06 07:08:41;;;;;;;8.20;7.40;;;1.90;99.90;;;;;;5015394;28;20199;-85
2022/03/06 07:11:10;;;;;;;13.23;9.93;;;1.90;99.90;;;;;;5014801;28;20278;-84
2022/03/06 07:13:38;;;;;;;13.47;8.83;;;1.90;99.90;;;;;;5015275;28;20211;-85
2022/03/06 07:16:07;;;;;;;9.90;8.13;;;1.90;99.90;;;;;;5014972;28;20207;-86
2022/03/06 07:18:37;;;;;;;17.00;8.83;;;1.90;99.90;;;;;;5015204;28;20203;-85
2022/03/06 07:21:06;;;;;;;11.07;7.63;;;1.90;99.90;;;;;;5014983;28;20226;-86
2022/03/06 07:23:36;;;;;;;9.23;8.20;;;2.00;99.90;;;;;;5015194;28;20234;-85
2022/03/06 07:26:05;;;;;;;10.83;8.27;;;2.00;99.90;;;;;;5014609;28;20223;-85
2022/03/06 07:28:33;;;;;;;10.05;8.00;;;2.10;99.90;;;;;;5014918;28;20207;-85
2022/03/06 07:31:02;;;;;;;10.77;8.50;;;2.10;99.90;;;;;;5014697;28;20223;-85
2022/03/06 07:33:30;;;;;;;9.37;7.87;;;2.20;99.90;;;;;;5014864;28;20261;-85
2022/03/06 07:36:00;;;;;;;13.13;9.27;;;2.20;99.90;;;;;;5014597;28;20199;-85
2022/03/06 07:38:29;;;;;;;9.50;8.52;;;2.30;99.90;;;;;;5014931;28;20219;-85
2022/03/06 07:40:57;;;;;;;13.40;9.20;;;2.50;99.90;;;;;;5014539;28;20230;-84
2022/03/06 07:43:26;;;;;;;9.50;7.90;;;2.70;99.90;;;;;;5014595;28;20261;-84
2022/03/06 07:45:54;;;;;;;10.65;8.57;;;2.90;99.90;;;;;;5014381;28;20265;-84
2022/03/06 07:48:22;;;;;;;9.90;8.48;;;3.00;99.90;;;;;;5014268;28;20234;-85
2022/03/06 07:50:51;;;;;;;12.13;9.38;;;3.10;99.90;;;;;;5014203;28;20227;-85
2022/03/06 07:53:21;;;;;;;8.93;8.05;;;3.30;99.90;;;;;;5014470;28;20261;-85
2022/03/06 07:55:51;;;;;;;16.25;9.25;;;3.40;99.90;;;;;;5014416;28;20202;-85
2022/03/06 07:58:20;;;;;;;11.63;9.82;;;3.50;99.90;;;;;;5014498;28;20277;-85
2022/03/06 08:00:48;;;;;;;12.70;8.85;;;3.60;99.90;;;;;;5013877;28;20246;-85
2022/03/06 08:03:17;;;;;;;11.13;9.13;;;3.80;99.90;;;;;;5014024;28;20231;-85
2022/03/06 08:05:46;;;;;;;10.43;9.27;;;3.80;99.90;;;;;;5014316;28;20215;-84
2022/03/06 08:08:14;;;;;;;12.50;10.10;;;3.90;99.90;;;;;;5014241;28;20233;-85
2022/03/06 08:10:44;;;;;;;11.30;10.15;;;4.00;99.90;;;;;;5015551;28;20227;-85
2022/03/06 08:13:13;;;;;;;12.85;10.07;;;4.10;99.90;;;;;;5014751;28;20200;-85
2022/03/06 08:15:41;;;;;;;16.48;10.65;;;4.10;99.90;;;;;;5014055;28;20207;-84
2022/03/06 08:18:10;;;;;;;11.80;9.50;;;4.10;99.80;;;;;;5013842;28;20207;-85
2022/03/06 08:20:38;;;;;;;12.70;9.82;;;4.10;99.90;;;;;;5013390;28;20260;-85
2022/03/06 08:23:07;;;;;;;9.93;8.90;;;4.10;99.90;;;;;;5013949;28;20211;-84
2022/03/06 08:25:35;;;;;;;14.93;10.80;;;4.20;99.70;;;;;;5014007;28;20227;-84
2022/03/06 08:28:05;;;;;;;9.82;8.82;;;4.40;99.40;;;;;;5014165;28;20203;-85
2022/03/06 08:30:34;;;;;;;15.95;10.40;;;4.50;99.30;;;;;;5015795;28;20231;-85
2022/03/06 08:33:02;;;;;;;10.35;9.30;;;4.60;99.20;;;;;;5014507;28;20205;-85
2022/03/06 08:35:31;;;;;;;9.38;8.30;;;4.70;98.70;;;;;;5013486;28;20203;-85
2022/03/06 08:37:59;;;;;;;14.27;9.25;;;4.60;98.30;;;;;;5013810;28;20265;-85
2022/03/06 08:40:28;;;;;;;11.40;8.82;;;4.70;98.40;;;;;;5013512;28;20277;-85
2022/03/06 08:42:56;;;;;;;11.48;9.77;;;4.60;97.60;;;;;;5013826;28;20238;-85
2022/03/06 08:45:27;;;;;;;12.07;9.45;;;4.60;98.40;;;;;;5013150;28;20257;-85
2022/03/06 08:47:55;;;;;;;12.77;10.60;;;4.50;98.20;;;;;;5013353;28;20203;-85
2022/03/06 08:50:24;;;;;;;11.40;10.30;;;4.70;97.90;;;;;;5013011;28;20235;-85
2022/03/06 08:52:52;;;;;;;19.83;10.88;;;4.80;97.80;;;;;;5013507;28;20207;-85
2022/03/06 08:55:20;;;;;;;11.85;9.55;;;4.80;97.60;;;;;;5013245;28;20211;-84
2022/03/06 08:57:49;;;;;;;12.32;9.50;;;4.80;98.00;;;;;;5013147;28;20215;-86
2022/03/06 09:00:18;;;;;;;11.90;9.00;;;5.00;97.60;;;;;;5012889;28;20235;-86
2022/03/06 09:02:48;;;;;;;11.52;9.07;;;5.00;97.80;;;;;;5013209;28;20242;-86
2022/03/06 09:05:17;;;;;;;18.90;9.02;;;5.20;97.50;;;;;;5013425;28;20206;-85
2022/03/06 09:07:45;;;;;;;12.32;9.02;;;5.30;96.90;;;;;;5012937;28;20223;-85
2022/03/06 09:10:14;;;;;;;15.30;9.50;;;5.30;96.00;;;;;;5013168;28;20231;-86
2022/03/06 09:12:42;;;;;;;9.05;7.95;;;5.30;96.00;;;;;;5012994;28;20207;-86
2022/03/06 09:15:11;;;;;;;10.30;8.35;;;5.30;95.20;;;;;;5012679;28;20258;-86
2022/03/06 09:17:40;;;;;;;10.70;8.90;;;5.30;95.00;;;;;;5013091;28;20269;-86
2022/03/06 09:20:11;;;;;;;11.35;9.18;;;5.20;94.80;;;;;;5012778;28;20230;-85
2022/03/06 09:22:39;;;;;;;11.25;8.45;;;5.20;94.80;;;;;;5013121;28;20210;-86
2022/03/06 09:25:08;;;;;;;8.68;7.88;;;5.30;94.80;;;;;;5012847;28;20212;-86
2022/03/06 09:27:37;;;;;;;8.55;7.75;;;5.60;95.20;;;;;;5012478;28;20300;-86
2022/03/06 09:30:07;;;;;;;9.38;7.93;;;5.90;94.10;;;;;;5012749;28;20289;-86
2022/03/06 09:32:36;;;;;;;9.02;8.18;;;6.30;93.80;;;;;;5013001;28;20206;-86
2022/03/06 09:35:06;;;;;;;10.20;9.20;;;6.70;92.30;;;;;;5012896;28;20203;-85
2022/03/06 09:37:36;;;;;;;12.00;8.73;;;7.30;91.40;;;;;;5012866;28;20199;-85
2022/03/06 09:40:06;;;;;;;9.73;8.20;;;7.60;88.90;;;;;;5012649;28;20223;-85
2022/03/06 09:42:35;;;;;;;7.95;7.28;;;7.80;87.70;;;;;;5012785;28;20203;-86
2022/03/06 09:45:08;;;;;;;9.90;8.88;;;7.90;88.00;;;;;;5012566;28;20203;-85
2022/03/06 09:47:37;;;;;;;8.15;7.35;;;8.30;88.10;;;;;;5012916;28;20226;-85
2022/03/06 09:50:07;;;;;;;10.35;8.43;;;8.50;83.50;;;;;;5012816;28;20277;-86
2022/03/06 09:52:37;;;;;;;8.75;7.30;;;8.80;83.80;;;;;;5012299;28;20211;-86
2022/03/06 09:55:07;;;;;;;10.50;7.18;;;8.90;80.60;;;;;;5012101;28;20203;-85
2022/03/06 09:57:36;;;;;;;12.45;7.97;;;8.90;79.90;;;;;;5012533;28;20273;-85
2022/03/06 10:00:06;;;;;;;7.85;6.55;;;8.70;75.80;;;;;;5012205;28;20235;-85
2022/03/06 10:02:52;;;;;;;8.85;6.57;;;7.70;73.60;;;;;;5012310;28;20215;-85
2022/03/06 10:05:34;;;;;;;7.05;6.22;;;6.80;77.90;;;;;;5012214;28;20207;-86
2022/03/06 10:08:22;;;;;;;8.25;6.57;;;6.20;79.40;;;;;;5012313;28;20227;-85
2022/03/06 10:10:53;;;;;;;8.10;7.30;;;6.20;80.50;;;;;;5012183;28;20224;-86
2022/03/06 10:13:24;;;;;;;10.25;7.60;;;6.60;80.60;;;;;;5011916;28;20207;-85
2022/03/06 10:16:11;;;;;;;6.63;6.00;;;7.10;83.30;;;;;;5011919;28;20207;-86
2022/03/06 10:18:41;;;;;;;7.05;6.38;;;7.70;79.10;;;;;;5012113;28;20234;-86
2022/03/06 10:21:24;;;;;;;9.18;7.30;;;8.00;78.30;;;;;;5011660;28;20231;-85
2022/03/06 10:23:56;;;;;;;9.82;6.93;;;8.20;75.90;;;;;;5012083;28;20222;-86
2022/03/06 10:26:27;;;;;;;7.72;6.82;;;8.20;74.70;;;;;;5012004;28;20230;-86
2022/03/06 10:28:57;;;;;;;9.20;7.38;;;8.20;76.50;;;;;;5011589;28;20199;-85
2022/03/06 10:31:27;;;;;;;8.38;7.00;;;8.20;73.20;;;;;;5011533;28;20227;-86
2022/03/06 10:34:01;;;;;;;8.23;7.30;;;8.40;73.80;;;;;;5012293;28;20203;-85
2022/03/06 10:36:31;;;;;;;7.25;6.55;;;8.90;73.00;;;;;;5015358;28;20257;-86
2022/03/06 10:39:02;;;;;;;10.00;8.32;;;9.60;74.00;;;;;;5015877;28;20234;-86
2022/03/06 10:41:39;;;;;;;7.72;7.03;;;10.10;70.10;;;;;;5015614;28;20226;-86
2022/03/06 10:44:09;;;;;;;7.95;7.15;;;10.20;69.20;;;;;;5015687;28;20249;-85
2022/03/06 10:46:39;;;;;;;6.85;6.20;;;9.60;68.60;;;;;;5014903;28;20218;-85
2022/03/06 10:49:12;;;;;;;7.93;7.10;;;9.00;68.70;;;;;;5015714;28;20218;-85
2022/03/06 10:51:44;;;;;;;7.75;6.97;;;8.40;68.50;;;;;;5015043;28;20217;-85
2022/03/06 10:54:16;;;;;;;7.72;6.95;;;7.70;70.00;;;;;;5015738;28;20211;-86
2022/03/06 10:56:49;;;;;;;7.75;7.05;;;7.40;73.00;;;;;;5015407;28;20207;-85
2022/03/06 10:59:19;;;;;;;9.30;7.30;;;7.60;71.80;;;;;;5015413;28;20269;-85
2022/03/06 11:01:49;;;;;;;11.40;8.07;;;8.30;71.10;;;;;;5015344;28;20257;-86
2022/03/06 11:04:19;;;;;;;7.03;6.35;;;9.20;70.00;;;;;;5015645;28;20206;-85
2022/03/06 11:06:50;;;;;;;9.80;7.78;;;9.80;67.80;;;;;;5015330;28;20246;-85
2022/03/06 11:09:21;;;;;;;8.52;7.68;;;9.40;65.00;;;;;;5015025;28;20251;-85
2022/03/06 11:11:52;;;;;;;11.57;8.15;;;8.90;66.10;;;;;;5015358;28;20200;-85
2022/03/06 11:14:20;;;;;;;9.93;7.78;;;8.10;69.00;;;;;;5015026;28;20207;-85
2022/03/06 11:16:49;;;;;;;8.07;7.28;;;7.50;69.40;;;;;;5014881;28;20219;-85
2022/03/06 11:19:18;;;;;;;9.45;7.70;;;7.10;70.70;;;;;;5015077;28;20207;-85
2022/03/06 11:21:51;;;;;;;8.45;7.55;;;6.90;72.40;;;;;;5014494;28;20211;-85
2022/03/06 11:24:26;;;;;;;9.50;7.78;;;6.90;72.30;;;;;;5014836;28;20210;-85
2022/03/06 11:27:13;;;;;;;8.30;7.00;;;6.90;74.70;;;;;;5014753;28;20290;-85
2022/03/06 11:30:02;;;;;;;8.50;6.72;;;6.90;73.40;;;;;;5014993;28;20231;-85
2022/03/06 11:32:34;;;;;;;8.52;7.43;;;6.70;73.80;;;;;;5014587;28;20207;-85
2022/03/06 11:35:07;;;;;;;9.60;7.55;;;6.50;74.00;;;;;;5014759;28;20223;-86
2022/03/06 11:37:55;;;;;;;9.45;7.50;;;6.30;73.00;;;;;;5014144;28;20207;-86
2022/03/06 11:40:48;;;;;;;12.00;8.70;;;6.10;73.20;;;;;;5014296;28;20235;-85
2022/03/06 11:43:33;;;;;;;10.10;8.32;;;5.90;72.60;;;;;;5014793;28;20214;-85
2022/03/06 11:46:12;;;;;;;8.88;7.38;;;5.70;73.50;;;;;;5012594;28;20289;-85
2022/03/06 11:49:07;;;;;;;10.93;8.32;;;5.60;74.40;;;;;;5014183;28;20222;-85
2022/03/06 11:51:40;;;;;;;9.80;7.97;;;5.30;75.20;;;;;;4990316;28;20231;-85
2022/03/06 11:54:11;;;;;;;15.75;8.82;;;5.30;76.70;;;;;;5014651;28;20199;-86
2022/03/06 11:57:00;;;;;;;13.20;9.30;;;5.20;75.70;;;;;;5014465;28;20222;-85
2022/03/06 11:59:34;;;;;;;9.13;8.27;;;5.10;74.70;;;;;;5014466;28;20218;-85
2022/03/06 12:02:07;;;;;;;13.23;8.80;;;5.10;76.10;;;;;;5014120;28;20207;-85
2022/03/06 12:04:40;;;;;;;14.43;10.10;;;5.00;78.60;;;;;;5014256;28;20210;-85
2022/03/06 12:07:10;;;;;;;17.38;9.90;;;5.00;77.70;;;;;;5013626;28;20209;-85
2022/03/06 12:09:42;;;;;;;12.48;9.18;;;4.80;77.90;;;;;;5013321;28;20234;-85
2022/03/06 12:12:14;;;;;;;10.68;8.88;;;4.80;78.40;;;;;;5014224;28;20210;-85
2022/03/06 12:14:44;;;;;;;10.20;7.85;;;5.00;78.90;;;;;;5015495;28;20207;-84
2022/03/06 12:17:40;;;;;;;11.80;9.00;;;5.00;77.50;;;;;;5013814;28;20207;-85
2022/03/06 12:20:27;;;;;;;8.05;7.28;;;5.10;78.00;;;;;;5013988;28;20310;-85
2022/03/06 12:23:06;;;;;;;9.88;7.60;;;5.20;79.20;;;;;;5014144;28;20217;-85
2022/03/06 12:25:39;;;;;;;8.38;7.47;;;5.50;76.20;;;;;;5013989;28;20211;-84
2022/03/06 12:28:43;;;;;;;12.38;8.98;;;5.50;75.40;;;;;;5013708;28;20251;-86
2022/03/06 12:31:37;;;;;;;12.65;9.13;;;5.00;77.30;;;;;;5013773;28;20292;-85
2022/03/06 12:34:38;;;;;;;9.55;8.02;;;4.90;75.80;;;;;;5015625;28;20203;-85
2022/03/06 12:37:07;;;;;;;13.32;9.48;;;5.10;77.50;;;;;;5013507;28;20206;-85
2022/03/06 12:39:37;;;;;;;10.07;8.90;;;5.00;78.50;;;;;;5013565;28;20238;-85
2022/03/06 12:42:06;;;;;;;8.60;7.70;;;5.00;78.40;;;;;;5013201;28;20242;-85
2022/03/06 12:44:44;;;;;;;12.65;8.73;;;5.10;79.50;;;;;;5013476;28;20203;-85
2022/03/06 12:47:13;;;;;;;9.30;8.32;;;5.10;78.50;;;;;;5013444;28;20222;-86
2022/03/06 12:49:42;;;;;;;8.65;7.82;;;5.30;77.60;;;;;;5013425;28;20231;-85
2022/03/06 12:52:10;;;;;;;9.07;8.18;;;5.30;76.30;;;;;;5013111;28;20207;-85
2022/03/06 12:54:39;;;;;;;10.55;8.43;;;5.50;75.60;;;;;;5012985;28;20250;-85
2022/03/06 12:57:07;;;;;;;8.68;7.38;;;5.40;76.80;;;;;;5013277;28;20212;-85
2022/03/06 12:59:41;;;;;;;8.15;7.35;;;5.50;76.60;;;;;;5013124;28;20223;-85
2022/03/06 13:02:10;;;;;;;10.00;7.97;;;5.80;77.40;;;;;;5013268;28;20230;-85
2022/03/06 13:04:39;;;;;;;8.35;6.78;;;6.00;75.60;;;;;;5013074;28;20209;-86
2022/03/06 13:07:12;;;;;;;9.95;7.88;;;6.10;75.30;;;;;;5012904;28;20294;-86